createdAt,value
2022-12-03T00:02:23.164Z,97767.00
2022-12-03T00:04:50.896Z,97761.00
2022-12-03T00:07:18.225Z,97771.00
2022-12-03T00:09:45.484Z,97761.00
2022-12-03T00:12:12.704Z,97755.00
2022-12-03T00:14:44.467Z,97756.00
2022-12-03T00:17:12.019Z,97765.00
2022-12-03T00:19:39.169Z,97769.00
2022-12-03T00:22:06.287Z,97759.00
2022-12-03T00:24:33.448Z,97759.00
2022-12-03T00:27:00.675Z,97762.00
2022-12-03T00:29:27.915Z,97759.00
2022-12-03T00:31:54.991Z,97758.00
2022-12-03T00:34:22.569Z,97765.00
2022-12-03T00:36:49.664Z,97773.00
2022-12-03T00:39:16.853Z,97773.00
2022-12-03T00:41:43.905Z,97769.00
2022-12-03T00:44:12.039Z,97770.00
2022-12-03T00:46:39.180Z,97775.00
2022-12-03T00:49:06.501Z,97769.00
2022-12-03T00:51:33.534Z,97773.00
2022-12-03T00:54:00.843Z,97772.00
2022-12-03T00:56:27.885Z,97757.00
2022-12-03T00:58:55.097Z,97759.00
2022-12-03T01:01:22.369Z,97768.00
2022-12-03T01:03:49.622Z,97769.00
2022-12-03T01:06:16.873Z,97772.00
2022-12-03T01:08:43.944Z,97776.00
2022-12-03T01:11:31.158Z,97783.00
2022-12-03T01:13:58.346Z,97787.00
2022-12-03T01:16:25.464Z,97773.00
2022-12-03T01:18:53.011Z,97782.00
2022-12-03T01:21:20.688Z,97770.00
2022-12-03T01:23:47.874Z,97783.00
2022-12-03T01:26:15.030Z,97766.00
2022-12-03T01:28:42.279Z,97770.00
2022-12-03T01:31:28.192Z,97768.00
2022-12-03T01:33:55.829Z,97760.00
2022-12-03T01:36:22.841Z,97755.00
2022-12-03T01:38:50.097Z,97766.00
2022-12-03T01:41:18.877Z,97766.00
2022-12-03T01:43:46.909Z,97762.00
2022-12-03T01:46:23.148Z,97766.00
2022-12-03T01:48:53.192Z,97768.00
2022-12-03T01:51:20.467Z,97777.00
2022-12-03T01:53:48.237Z,97774.00
2022-12-03T01:56:17.479Z,97768.00
2022-12-03T01:58:46.082Z,97755.00
2022-12-03T02:01:17.023Z,97771.00
2022-12-03T02:03:46.446Z,97766.00
2022-12-03T02:06:20.184Z,97761.00
2022-12-03T02:08:49.332Z,97755.00
2022-12-03T02:11:30.789Z,97757.00
2022-12-03T02:14:05.159Z,97759.00
2022-12-03T02:16:35.336Z,97747.00
2022-12-03T02:19:03.384Z,97754.00
2022-12-03T02:21:54.982Z,97744.00
2022-12-03T02:24:39.513Z,97740.00
2022-12-03T02:27:06.928Z,97746.00
2022-12-03T02:29:34.256Z,97748.00
2022-12-03T02:32:01.475Z,97755.00
2022-12-03T02:34:46.357Z,97748.00
2022-12-03T02:37:30.150Z,97752.00
2022-12-03T02:40:06.292Z,97755.00
2022-12-03T02:42:36.632Z,97759.00
2022-12-03T02:45:11.819Z,97753.00
2022-12-03T02:47:50.191Z,97756.00
2022-12-03T02:50:22.582Z,97760.00
2022-12-03T02:52:51.212Z,97760.00
2022-12-03T02:55:19.392Z,97766.00
2022-12-03T02:57:50.651Z,97765.00
2022-12-03T03:00:19.542Z,97751.00
2022-12-03T03:02:47.670Z,97760.00
2022-12-03T03:05:16.775Z,97756.00
2022-12-03T03:07:44.131Z,97756.00
2022-12-03T03:10:17.933Z,97756.00
2022-12-03T03:12:45.147Z,97755.00
2022-12-03T03:15:13.452Z,97760.00
2022-12-03T03:17:42.480Z,97757.00
2022-12-03T03:20:11.228Z,97761.00
2022-12-03T03:22:42.904Z,97758.00
2022-12-03T03:25:14.247Z,97746.00
2022-12-03T03:27:42.639Z,97744.00
2022-12-03T03:30:11.957Z,97748.00
2022-12-03T03:32:40.329Z,97740.00
2022-12-03T03:35:09.596Z,97749.00
2022-12-03T03:37:37.039Z,97747.00
2022-12-03T03:40:04.586Z,97755.00
2022-12-03T03:42:31.760Z,97753.00
2022-12-03T03:44:59.171Z,97739.00
2022-12-03T03:47:26.707Z,97736.00
2022-12-03T03:49:54.174Z,97743.00
2022-12-03T03:52:21.598Z,97741.00
2022-12-03T03:54:48.955Z,97735.00
2022-12-03T03:57:16.421Z,97736.00
2022-12-03T03:59:43.786Z,97722.00
2022-12-03T04:02:22.608Z,97731.00
2022-12-03T04:04:50.463Z,97731.00
2022-12-03T04:07:17.684Z,97733.00
2022-12-03T04:09:45.120Z,97723.00
2022-12-03T04:12:32.244Z,97727.00
2022-12-03T04:14:59.901Z,97736.00
2022-12-03T04:17:27.589Z,97754.00
2022-12-03T04:19:54.653Z,97735.00
2022-12-03T04:22:39.942Z,97736.00
2022-12-03T04:25:27.266Z,97735.00
2022-12-03T04:28:13.530Z,97745.00
2022-12-03T04:30:40.672Z,97738.00
2022-12-03T04:33:26.518Z,97728.00
2022-12-03T04:35:53.874Z,97727.00
2022-12-03T04:38:21.093Z,97735.00
2022-12-03T04:41:06.716Z,97738.00
2022-12-03T04:43:55.466Z,97728.00
2022-12-03T04:46:22.693Z,97732.00
2022-12-03T04:48:49.966Z,97734.00
2022-12-03T04:51:16.975Z,97732.00
2022-12-03T04:53:46.412Z,97733.00
2022-12-03T04:56:13.577Z,97736.00
2022-12-03T04:58:40.819Z,97740.00
2022-12-03T05:01:07.961Z,97736.00
2022-12-03T05:03:35.158Z,97738.00
2022-12-03T05:06:02.180Z,97733.00
2022-12-03T05:08:29.345Z,97733.00
2022-12-03T05:10:56.429Z,97729.00
2022-12-03T05:13:23.477Z,97741.00
2022-12-03T05:15:50.572Z,97738.00
2022-12-03T05:18:17.742Z,97738.00
2022-12-03T05:20:51.521Z,97750.00
2022-12-03T05:23:20.854Z,97746.00
2022-12-03T05:25:48.110Z,97741.00
2022-12-03T05:28:15.214Z,97737.00
2022-12-03T05:30:42.754Z,97740.00
2022-12-03T05:33:10.047Z,97737.00
2022-12-03T05:35:37.092Z,97742.00
2022-12-03T05:38:04.264Z,97730.00
2022-12-03T05:40:31.379Z,97728.00
2022-12-03T05:43:01.324Z,97724.00
2022-12-03T05:45:32.122Z,97728.00
2022-12-03T05:48:00.405Z,97719.00
2022-12-03T05:50:31.703Z,97715.00
2022-12-03T05:52:59.699Z,97709.00
2022-12-03T05:55:27.542Z,97706.00
2022-12-03T05:57:55.225Z,97719.00
2022-12-03T06:00:27.702Z,97722.00
2022-12-03T06:02:55.257Z,97725.00
2022-12-03T06:05:24.111Z,97733.00
2022-12-03T06:07:53.024Z,97713.00
2022-12-03T06:10:24.021Z,97705.00
2022-12-03T06:12:52.068Z,97711.00
2022-12-03T06:15:20.138Z,97717.00
2022-12-03T06:17:47.847Z,97730.00
2022-12-03T06:20:18.223Z,97733.00
2022-12-03T06:22:45.669Z,97735.00
2022-12-03T06:25:14.000Z,97732.00
2022-12-03T06:27:41.124Z,97736.00
2022-12-03T06:30:09.503Z,97726.00
2022-12-03T06:32:36.596Z,97737.00
2022-12-03T06:35:04.153Z,97726.00
2022-12-03T06:37:31.289Z,97720.00
2022-12-03T06:39:58.356Z,97730.00
2022-12-03T06:42:25.517Z,97724.00
2022-12-03T06:44:53.320Z,97728.00
2022-12-03T06:47:20.565Z,97722.00
2022-12-03T06:49:47.929Z,97723.00
2022-12-03T06:52:15.142Z,97724.00
2022-12-03T06:54:42.333Z,97730.00
2022-12-03T06:57:09.550Z,97734.00
2022-12-03T06:59:37.637Z,97729.00
2022-12-03T07:02:05.475Z,97737.00
2022-12-03T07:04:32.588Z,97729.00
2022-12-03T07:06:59.887Z,97746.00
2022-12-03T07:09:26.949Z,97732.00
2022-12-03T07:11:54.123Z,97739.00
2022-12-03T07:14:21.233Z,97746.00
2022-12-03T07:16:48.238Z,97734.00
2022-12-03T07:19:15.896Z,97734.00
2022-12-03T07:21:42.974Z,97734.00
2022-12-03T07:24:10.146Z,97740.00
2022-12-03T07:26:37.289Z,97733.00
2022-12-03T07:29:04.757Z,97735.00
2022-12-03T07:31:31.988Z,97742.00
2022-12-03T07:33:59.300Z,97726.00
2022-12-03T07:36:26.407Z,97736.00
2022-12-03T07:38:53.459Z,97734.00
2022-12-03T07:41:20.697Z,97743.00
2022-12-03T07:43:47.895Z,97744.00
2022-12-03T07:46:15.018Z,97728.00
2022-12-03T07:48:42.396Z,97745.00
2022-12-03T07:51:12.906Z,97746.00
2022-12-03T07:53:42.732Z,97730.00
2022-12-03T07:56:09.996Z,97735.00
2022-12-03T07:58:37.144Z,97736.00
2022-12-03T08:01:04.452Z,97736.00
2022-12-03T08:03:31.591Z,97731.00
2022-12-03T08:05:58.809Z,97739.00
2022-12-03T08:08:25.896Z,97735.00
2022-12-03T08:10:53.000Z,97735.00
2022-12-03T08:13:20.171Z,97726.00
2022-12-03T08:15:47.779Z,97735.00
2022-12-03T08:18:21.000Z,97726.00
2022-12-03T08:20:50.607Z,97732.00
2022-12-03T08:23:24.376Z,97735.00
2022-12-03T08:25:53.172Z,97739.00
2022-12-03T08:28:27.258Z,97735.00
2022-12-03T08:31:18.728Z,97744.00
2022-12-03T08:33:49.361Z,97743.00
2022-12-03T08:36:31.592Z,97735.00
2022-12-03T08:39:31.240Z,97744.00
2022-12-03T08:42:41.482Z,97740.00
2022-12-03T08:45:30.402Z,97737.00
2022-12-03T08:48:21.794Z,97736.00
2022-12-03T08:50:49.112Z,97739.00
2022-12-03T08:53:39.111Z,97741.00
2022-12-03T08:56:28.336Z,97747.00
2022-12-03T08:59:30.127Z,97746.00
2022-12-03T09:01:59.628Z,97748.00
2022-12-03T09:04:46.796Z,97750.00
2022-12-03T09:07:14.071Z,97740.00
2022-12-03T09:09:41.214Z,97755.00
2022-12-03T09:12:08.552Z,97757.00
2022-12-03T09:14:35.765Z,97755.00
2022-12-03T09:17:03.069Z,97755.00
2022-12-03T09:19:33.277Z,97748.00
2022-12-03T09:22:00.341Z,97751.00
2022-12-03T09:24:27.508Z,97747.00
2022-12-03T09:26:54.593Z,97750.00
2022-12-03T09:29:21.777Z,97740.00
2022-12-03T09:31:48.996Z,97734.00
2022-12-03T09:34:16.379Z,97736.00
2022-12-03T09:36:43.458Z,97738.00
2022-12-03T09:39:10.692Z,97735.00
2022-12-03T09:41:37.817Z,97724.00
2022-12-03T09:44:05.841Z,97726.00
2022-12-03T09:46:36.389Z,97720.00
2022-12-03T09:49:10.845Z,97712.00
2022-12-03T09:51:41.405Z,97720.00
2022-12-03T09:54:10.677Z,97719.00
2022-12-03T09:56:38.477Z,97707.00
2022-12-03T09:59:16.291Z,97709.00
2022-12-03T10:01:44.052Z,97713.00
2022-12-03T10:04:11.791Z,97706.00
2022-12-03T10:06:45.598Z,97712.00
2022-12-03T10:09:17.557Z,97705.00
2022-12-03T10:11:44.950Z,97712.00
2022-12-03T10:14:14.755Z,97704.00
2022-12-03T10:16:42.319Z,97690.00
2022-12-03T10:19:26.870Z,97693.00
2022-12-03T10:21:53.946Z,97677.00
2022-12-03T10:24:31.593Z,97686.00
2022-12-03T10:27:05.450Z,97677.00
2022-12-03T10:29:37.195Z,97678.00
2022-12-03T10:32:08.699Z,97682.00
2022-12-03T10:34:40.146Z,97680.00
2022-12-03T10:37:16.066Z,97674.00
2022-12-03T10:40:08.325Z,97665.00
2022-12-03T10:42:41.193Z,97670.00
2022-12-03T10:45:22.719Z,97656.00
2022-12-03T10:48:19.362Z,97667.00
2022-12-03T10:50:53.711Z,97655.00
2022-12-03T10:53:26.316Z,97671.00
2022-12-03T10:55:58.848Z,97666.00
2022-12-03T10:58:30.799Z,97668.00
2022-12-03T11:00:59.006Z,97657.00
2022-12-03T11:03:30.460Z,97666.00
2022-12-03T11:06:01.091Z,97668.00
2022-12-03T11:08:37.132Z,97666.00
2022-12-03T11:11:08.905Z,97658.00
2022-12-03T11:13:36.051Z,97667.00
2022-12-03T11:16:07.534Z,97666.00
2022-12-03T11:18:37.654Z,97661.00
2022-12-03T11:21:07.159Z,97655.00
2022-12-03T11:23:46.883Z,97660.00
2022-12-03T11:26:26.998Z,97657.00
2022-12-03T11:28:57.476Z,97656.00
2022-12-03T11:31:48.849Z,97659.00
2022-12-03T11:34:18.953Z,97652.00
2022-12-03T11:37:11.300Z,97651.00
2022-12-03T11:39:50.741Z,97646.00
2022-12-03T11:42:27.211Z,97634.00
2022-12-03T11:45:06.381Z,97647.00
2022-12-03T11:47:47.852Z,97637.00
2022-12-03T11:50:45.571Z,97629.00
2022-12-03T11:53:27.459Z,97626.00
2022-12-03T11:56:09.179Z,97619.00
2022-12-03T11:58:40.261Z,97613.00
2022-12-03T12:01:08.974Z,97611.00
2022-12-03T12:03:47.017Z,97609.00
2022-12-03T12:06:21.852Z,97609.00
2022-12-03T12:08:52.197Z,97612.00
2022-12-03T12:11:29.799Z,97606.00
2022-12-03T12:14:05.673Z,97610.00
2022-12-03T12:16:38.922Z,97598.00
2022-12-03T12:19:40.909Z,97613.00
2022-12-03T12:22:15.608Z,97602.00
2022-12-03T12:24:51.463Z,97602.00
2022-12-03T12:27:22.574Z,97583.00
2022-12-03T12:29:59.194Z,97586.00
2022-12-03T12:33:12.677Z,97582.00
2022-12-03T12:35:40.999Z,97574.00
2022-12-03T12:38:08.727Z,97575.00
2022-12-03T12:40:42.115Z,97567.00
2022-12-03T12:43:25.563Z,97564.00
2022-12-03T12:46:18.804Z,97558.00
2022-12-03T12:48:48.538Z,97546.00
2022-12-03T12:51:20.547Z,97561.00
2022-12-03T12:53:49.171Z,97565.00
2022-12-03T12:56:31.982Z,97552.00
2022-12-03T12:59:15.986Z,97559.00
2022-12-03T13:01:44.983Z,97554.00
2022-12-03T13:04:14.589Z,97559.00
2022-12-03T13:06:42.833Z,97566.00
2022-12-03T13:09:21.050Z,97540.00
2022-12-03T13:11:58.262Z,97542.00
2022-12-03T13:14:31.556Z,97538.00
2022-12-03T13:17:01.521Z,97538.00
2022-12-03T13:19:32.722Z,97544.00
2022-12-03T13:22:15.747Z,97534.00
2022-12-03T13:24:53.471Z,97528.00
2022-12-03T13:27:20.706Z,97527.00
2022-12-03T13:30:09.252Z,97528.00
2022-12-03T13:32:42.112Z,97537.00
2022-12-03T13:35:31.219Z,97536.00
2022-12-03T13:37:59.756Z,97534.00
2022-12-03T13:40:28.369Z,97537.00
2022-12-03T13:42:55.757Z,97538.00
2022-12-03T13:45:25.616Z,97533.00
2022-12-03T13:48:02.410Z,97528.00
2022-12-03T13:50:42.456Z,97530.00
2022-12-03T13:53:35.210Z,97534.00
2022-12-03T13:56:31.355Z,97527.00
2022-12-03T13:59:01.244Z,97533.00
2022-12-03T14:01:29.250Z,97533.00
2022-12-03T14:03:57.278Z,97523.00
2022-12-03T14:06:24.368Z,97523.00
2022-12-03T14:08:51.574Z,97516.00
2022-12-03T14:11:37.342Z,97515.00
2022-12-03T14:14:04.552Z,97521.00
2022-12-03T14:16:31.688Z,97529.00
2022-12-03T14:18:58.991Z,97536.00
2022-12-03T14:21:26.090Z,97534.00
2022-12-03T14:23:53.258Z,97542.00
2022-12-03T14:26:20.362Z,97541.00
2022-12-03T14:28:47.578Z,97545.00
2022-12-03T14:31:14.668Z,97547.00
2022-12-03T14:33:41.861Z,97541.00
2022-12-03T14:36:09.387Z,97540.00
2022-12-03T14:38:36.610Z,97542.00
2022-12-03T14:41:03.935Z,97537.00
2022-12-03T14:43:31.169Z,97541.00
2022-12-03T14:45:58.271Z,97529.00
2022-12-03T14:48:25.563Z,97533.00
2022-12-03T14:50:52.603Z,97534.00
2022-12-03T14:53:25.580Z,97534.00
2022-12-03T14:55:55.803Z,97533.00
2022-12-03T14:58:22.979Z,97521.00
2022-12-03T15:00:50.166Z,97523.00
2022-12-03T15:03:17.421Z,97522.00
2022-12-03T15:05:44.437Z,97520.00
2022-12-03T15:08:11.973Z,97526.00
2022-12-03T15:10:39.013Z,97515.00
2022-12-03T15:13:06.233Z,97513.00
2022-12-03T15:15:33.226Z,97512.00
2022-12-03T15:18:00.437Z,97521.00
2022-12-03T15:20:27.527Z,97530.00
2022-12-03T15:22:54.775Z,97516.00
2022-12-03T15:25:25.511Z,97509.00
2022-12-03T15:27:52.757Z,97511.00
2022-12-03T15:30:20.778Z,97509.00
2022-12-03T15:32:47.994Z,97509.00
2022-12-03T15:35:18.545Z,97511.00
2022-12-03T15:37:46.416Z,97503.00
2022-12-03T15:40:13.897Z,97504.00
2022-12-03T15:42:40.998Z,97518.00
2022-12-03T15:45:14.783Z,97514.00
2022-12-03T15:47:42.391Z,97513.00
2022-12-03T15:50:10.219Z,97513.00
2022-12-03T15:52:37.402Z,97511.00
2022-12-03T15:55:05.374Z,97514.00
2022-12-03T15:57:32.571Z,97515.00
2022-12-03T15:59:59.947Z,97524.00
2022-12-03T16:02:33.820Z,97514.00
2022-12-03T16:05:05.852Z,97512.00
2022-12-03T16:07:33.119Z,97498.00
2022-12-03T16:10:02.011Z,97510.00
2022-12-03T16:12:29.479Z,97522.00
2022-12-03T16:14:56.634Z,97518.00
2022-12-03T16:17:23.848Z,97510.00
2022-12-03T16:19:51.029Z,97495.00
2022-12-03T16:22:18.434Z,97495.00
2022-12-03T16:24:45.712Z,97492.00
2022-12-03T16:27:13.002Z,97489.00
2022-12-03T16:29:40.090Z,97473.00
2022-12-03T16:32:07.255Z,97479.00
2022-12-03T16:34:34.636Z,97493.00
2022-12-03T16:37:01.888Z,97484.00
2022-12-03T16:39:29.008Z,97480.00
2022-12-03T16:41:56.045Z,97482.00
2022-12-03T16:44:32.769Z,97485.00
2022-12-03T16:47:01.532Z,97487.00
2022-12-03T16:49:29.154Z,97489.00
2022-12-03T16:51:56.424Z,97487.00
2022-12-03T16:54:23.418Z,97476.00
2022-12-03T16:56:50.609Z,97486.00
2022-12-03T16:59:17.900Z,97494.00
2022-12-03T17:01:45.004Z,97492.00
2022-12-03T17:04:12.286Z,97498.00
2022-12-03T17:06:39.330Z,97498.00
2022-12-03T17:09:06.474Z,97496.00
2022-12-03T17:11:33.739Z,97490.00
2022-12-03T17:14:00.851Z,97487.00
2022-12-03T17:16:28.387Z,97473.00
2022-12-03T17:18:55.633Z,97474.00
2022-12-03T17:21:22.750Z,97461.00
2022-12-03T17:23:51.140Z,97458.00
2022-12-03T17:26:19.357Z,97463.00
2022-12-03T17:28:46.630Z,97465.00
2022-12-03T17:31:14.004Z,97453.00
2022-12-03T17:33:41.190Z,97459.00
2022-12-03T17:36:08.763Z,97453.00
2022-12-03T17:38:39.317Z,97459.00
2022-12-03T17:41:07.550Z,97446.00
2022-12-03T17:43:34.754Z,97455.00
2022-12-03T17:46:01.902Z,97461.00
2022-12-03T17:48:31.208Z,97467.00
2022-12-03T17:50:58.559Z,97452.00
2022-12-03T17:53:25.698Z,97459.00
2022-12-03T17:55:52.849Z,97459.00
2022-12-03T17:58:20.067Z,97454.00
2022-12-03T18:00:47.321Z,97451.00
2022-12-03T18:03:14.446Z,97452.00
2022-12-03T18:05:41.734Z,97450.00
2022-12-03T18:08:08.961Z,97453.00
2022-12-03T18:10:36.162Z,97446.00
2022-12-03T18:13:03.643Z,97443.00
2022-12-03T18:15:31.254Z,97448.00
2022-12-03T18:17:58.518Z,97433.00
2022-12-03T18:20:25.770Z,97445.00
2022-12-03T18:22:52.962Z,97436.00
2022-12-03T18:25:20.145Z,97452.00
2022-12-03T18:27:47.382Z,97443.00
2022-12-03T18:30:14.819Z,97440.00
2022-12-03T18:32:42.172Z,97430.00
2022-12-03T18:35:09.546Z,97430.00
2022-12-03T18:37:38.489Z,97440.00
2022-12-03T18:40:12.760Z,97432.00
2022-12-03T18:42:40.617Z,97431.00
2022-12-03T18:45:11.020Z,97421.00
2022-12-03T18:47:38.244Z,97427.00
2022-12-03T18:50:09.667Z,97433.00
2022-12-03T18:52:36.956Z,97423.00
2022-12-03T18:55:06.092Z,97418.00
2022-12-03T18:57:33.236Z,97420.00
2022-12-03T19:00:00.354Z,97419.00
2022-12-03T19:05:15.181Z,97423.00
2022-12-03T19:07:43.433Z,97416.00
2022-12-03T19:10:11.858Z,97415.00
2022-12-03T19:12:39.219Z,97415.00
2022-12-03T19:15:07.248Z,97418.00
2022-12-03T19:17:34.739Z,97414.00
2022-12-03T19:20:02.037Z,97414.00
2022-12-03T19:22:29.618Z,97426.00
2022-12-03T19:24:58.267Z,97429.00
2022-12-03T19:27:25.996Z,97431.00
2022-12-03T19:29:53.642Z,97430.00
2022-12-03T19:32:22.783Z,97429.00
2022-12-03T19:34:50.191Z,97426.00
2022-12-03T19:37:17.659Z,97422.00
2022-12-03T19:39:44.860Z,97418.00
2022-12-03T19:42:11.975Z,97417.00
2022-12-03T19:44:39.329Z,97419.00
2022-12-03T19:47:06.455Z,97420.00
2022-12-03T19:49:33.763Z,97416.00
2022-12-03T19:52:00.892Z,97415.00
2022-12-03T19:54:28.096Z,97394.00
2022-12-03T19:56:55.090Z,97413.00
2022-12-03T19:59:22.374Z,97409.00
2022-12-03T20:01:49.642Z,97419.00
2022-12-03T20:04:16.978Z,97421.00
2022-12-03T20:06:45.401Z,97419.00
2022-12-03T20:09:17.945Z,97414.00
2022-12-03T20:11:46.188Z,97406.00
2022-12-03T20:14:17.278Z,97406.00
2022-12-03T20:16:45.481Z,97399.00
2022-12-03T20:19:15.859Z,97394.00
2022-12-03T20:21:44.135Z,97397.00
2022-12-03T20:24:16.429Z,97401.00
2022-12-03T20:26:44.287Z,97405.00
2022-12-03T20:29:11.524Z,97409.00
2022-12-03T20:31:38.669Z,97411.00
2022-12-03T20:34:06.005Z,97402.00
2022-12-03T20:36:33.606Z,97408.00
2022-12-03T20:39:04.399Z,97402.00
2022-12-03T20:41:34.921Z,97406.00
2022-12-03T20:44:03.189Z,97392.00
2022-12-03T20:46:31.616Z,97389.00
2022-12-03T20:48:59.892Z,97387.00
2022-12-03T20:51:30.140Z,97388.00
2022-12-03T20:53:59.270Z,97389.00
2022-12-03T20:56:34.904Z,97376.00
2022-12-03T20:59:11.047Z,97379.00
2022-12-03T21:01:40.164Z,97375.00
2022-12-03T21:04:09.127Z,97375.00
2022-12-03T21:06:37.379Z,97388.00
2022-12-03T21:09:06.893Z,97382.00
2022-12-03T21:11:36.441Z,97368.00
2022-12-03T21:14:04.311Z,97369.00
2022-12-03T21:19:23.432Z,97368.00
2022-12-03T21:21:50.812Z,97377.00
2022-12-03T21:24:17.823Z,97376.00
2022-12-03T21:26:45.064Z,97376.00
2022-12-03T21:29:12.292Z,97373.00
2022-12-03T21:31:42.850Z,97370.00
2022-12-03T21:34:10.031Z,97364.00
2022-12-03T21:36:37.385Z,97366.00
2022-12-03T21:39:06.106Z,97359.00
2022-12-03T21:41:35.176Z,97360.00
2022-12-03T21:44:03.396Z,97363.00
2022-12-03T21:47:10.609Z,97355.00
2022-12-03T21:49:19.510Z,97357.00
2022-12-03T21:51:47.069Z,97359.00
2022-12-03T21:54:14.690Z,97352.00
2022-12-03T21:56:41.700Z,97354.00
2022-12-03T21:59:08.974Z,97343.00
2022-12-03T22:01:36.154Z,97346.00
2022-12-03T22:04:03.512Z,97332.00
2022-12-03T22:06:30.526Z,97340.00
2022-12-03T22:08:58.774Z,97348.00
2022-12-03T22:11:25.937Z,97340.00
2022-12-03T22:13:54.570Z,97340.00
2022-12-03T22:16:22.183Z,97343.00
2022-12-03T22:18:49.927Z,97330.00
2022-12-03T22:21:20.069Z,97329.00
2022-12-03T22:23:47.409Z,97333.00
2022-12-03T22:26:17.945Z,97337.00
2022-12-03T22:28:47.526Z,97330.00
2022-12-03T22:31:16.864Z,97330.00
2022-12-03T22:33:48.513Z,97328.00
2022-12-03T22:36:21.002Z,97335.00
2022-12-03T22:38:50.884Z,97339.00
2022-12-03T22:41:19.649Z,97334.00
2022-12-03T22:43:48.456Z,97323.00
2022-12-03T22:46:35.890Z,97323.00
2022-12-03T22:49:19.163Z,97316.00
2022-12-03T22:51:48.801Z,97310.00
2022-12-03T22:54:20.766Z,97313.00
2022-12-03T22:56:51.032Z,97316.00
2022-12-03T22:59:18.160Z,97307.00
2022-12-03T23:01:45.314Z,97308.00
2022-12-03T23:04:12.799Z,97298.00
2022-12-03T23:06:40.146Z,97315.00
2022-12-03T23:09:08.608Z,97300.00
2022-12-03T23:11:36.600Z,97287.00
2022-12-03T23:14:03.869Z,97293.00
2022-12-03T23:16:32.884Z,97295.00
2022-12-03T23:19:02.027Z,97296.00
2022-12-03T23:21:34.162Z,97288.00
2022-12-03T23:24:05.479Z,97291.00
2022-12-03T23:26:37.005Z,97280.00
2022-12-03T23:29:06.199Z,97272.00
2022-12-03T23:31:34.031Z,97275.00
2022-12-03T23:34:01.956Z,97274.00
2022-12-03T23:36:32.335Z,97252.00
2022-12-03T23:38:59.554Z,97249.00
2022-12-03T23:41:27.606Z,97243.00
2022-12-03T23:43:54.952Z,97249.00
2022-12-03T23:46:25.700Z,97247.00
2022-12-03T23:48:53.300Z,97263.00
2022-12-03T23:51:24.702Z,97266.00
2022-12-03T23:53:53.259Z,97266.00
2022-12-03T23:56:31.031Z,97253.00
2022-12-03T23:58:59.118Z,97247.00
